createdAt,value
2023-04-24T00:02:19.857Z,1.20
2023-04-24T00:04:47.876Z,1.40
2023-04-24T00:07:17.781Z,1.05
2023-04-24T00:09:45.737Z,1.35
2023-04-24T00:12:13.664Z,1.10
2023-04-24T00:14:41.611Z,1.00
2023-04-24T00:17:10.802Z,1.00
2023-04-24T00:19:38.541Z,0.57
2023-04-24T00:22:06.315Z,0.90
2023-04-24T00:24:34.016Z,0.90
2023-04-24T00:27:01.895Z,0.60
2023-04-24T00:29:30.177Z,0.90
2023-04-24T00:31:58.031Z,0.63
2023-04-24T00:34:27.294Z,1.05
2023-04-24T00:36:55.665Z,0.70
2023-04-24T00:39:23.826Z,0.88
2023-04-24T00:41:53.473Z,1.02
2023-04-24T00:44:21.372Z,0.73
2023-04-24T00:46:52.810Z,0.90
2023-04-24T00:49:20.872Z,0.80
2023-04-24T00:51:50.322Z,0.90
2023-04-24T00:54:18.948Z,1.08
2023-04-24T00:56:46.945Z,1.00
2023-04-24T00:59:15.210Z,0.70
2023-04-24T01:01:43.594Z,1.17
2023-04-24T01:04:13.171Z,0.70
2023-04-24T01:06:42.523Z,1.90
2023-04-24T01:09:13.810Z,0.70
2023-04-24T01:11:43.263Z,0.75
2023-04-24T01:14:11.432Z,1.15
2023-04-24T01:16:39.446Z,0.80
2023-04-24T01:19:08.266Z,1.05
2023-04-24T01:21:38.587Z,0.82
2023-04-24T01:24:08.721Z,0.60
2023-04-24T01:26:48.880Z,0.90
2023-04-24T01:29:16.823Z,0.63
2023-04-24T01:31:45.203Z,0.85
2023-04-24T01:34:13.074Z,0.50
2023-04-24T01:36:41.545Z,0.57
2023-04-24T01:39:10.670Z,0.73
2023-04-24T01:41:38.387Z,0.80
2023-04-24T01:44:06.382Z,0.77
2023-04-24T01:46:35.724Z,0.85
2023-04-24T01:49:04.027Z,1.00
2023-04-24T01:51:32.585Z,0.70
2023-04-24T01:54:00.389Z,0.82
2023-04-24T01:56:31.714Z,0.80
2023-04-24T01:58:59.950Z,0.85
2023-04-24T02:01:27.921Z,0.60
2023-04-24T02:03:55.805Z,0.57
2023-04-24T02:06:24.361Z,0.98
2023-04-24T02:08:52.055Z,0.77
2023-04-24T02:11:20.550Z,0.85
2023-04-24T02:13:49.717Z,1.05
2023-04-24T02:16:17.522Z,0.80
2023-04-24T02:18:45.680Z,0.80
2023-04-24T02:21:13.382Z,0.77
2023-04-24T02:23:41.209Z,0.68
2023-04-24T02:26:09.435Z,0.82
2023-04-24T02:28:37.164Z,0.57
2023-04-24T02:31:07.113Z,0.70
2023-04-24T02:33:34.913Z,0.73
2023-04-24T02:36:03.911Z,0.90
2023-04-24T02:38:31.658Z,1.48
2023-04-24T02:40:59.377Z,0.98
2023-04-24T02:43:27.079Z,0.85
2023-04-24T02:45:54.858Z,1.02
2023-04-24T02:48:24.549Z,0.70
2023-04-24T02:50:52.405Z,0.80
2023-04-24T02:53:20.208Z,0.80
2023-04-24T02:55:47.918Z,0.85
2023-04-24T02:58:16.608Z,1.17
2023-04-24T03:00:44.382Z,1.13
2023-04-24T03:03:12.252Z,1.38
2023-04-24T03:05:41.529Z,1.00
2023-04-24T03:08:09.258Z,2.63
2023-04-24T03:10:36.984Z,1.30
2023-04-24T03:13:04.686Z,1.52
2023-04-24T03:15:32.417Z,1.00
2023-04-24T03:18:01.451Z,1.27
2023-04-24T03:20:29.207Z,1.20
2023-04-24T03:22:58.296Z,1.17
2023-04-24T03:25:26.026Z,1.27
2023-04-24T03:27:55.636Z,1.80
2023-04-24T03:30:23.365Z,1.40
2023-04-24T03:32:51.106Z,1.70
2023-04-24T03:35:18.841Z,1.90
2023-04-24T03:37:46.521Z,1.90
2023-04-24T03:40:15.576Z,1.75
2023-04-24T03:42:43.356Z,1.08
2023-04-24T03:45:12.091Z,1.30
2023-04-24T03:47:40.118Z,1.40
2023-04-24T03:50:08.649Z,1.40
2023-04-24T03:52:36.559Z,1.92
2023-04-24T03:55:04.620Z,1.45
2023-04-24T03:57:33.777Z,1.73
2023-04-24T04:00:02.545Z,1.80
2023-04-24T04:02:30.280Z,1.50
2023-04-24T04:04:58.192Z,1.10
2023-04-24T04:07:26.474Z,1.40
2023-04-24T04:09:54.168Z,1.35
2023-04-24T04:12:21.879Z,1.13
2023-04-24T04:14:51.264Z,1.27
2023-04-24T04:17:18.994Z,1.50
2023-04-24T04:19:46.725Z,1.35
2023-04-24T04:22:14.521Z,1.48
2023-04-24T04:24:42.278Z,1.30
2023-04-24T04:27:10.103Z,1.20
2023-04-24T04:29:37.967Z,1.42
2023-04-24T04:32:07.219Z,1.40
2023-04-24T04:34:35.098Z,1.50
2023-04-24T04:37:03.038Z,1.85
2023-04-24T04:39:31.548Z,2.20
2023-04-24T04:41:59.517Z,2.30
2023-04-24T04:44:30.152Z,2.00
2023-04-24T04:47:00.029Z,2.33
2023-04-24T04:49:29.758Z,1.85
2023-04-24T04:51:57.551Z,2.28
2023-04-24T04:54:25.868Z,2.67
2023-04-24T04:56:53.786Z,1.52
2023-04-24T04:59:21.845Z,2.50
2023-04-24T05:01:49.554Z,1.90
2023-04-24T05:04:17.371Z,2.10
2023-04-24T05:06:48.088Z,1.88
2023-04-24T05:09:15.909Z,1.73
2023-04-24T05:11:43.609Z,2.10
2023-04-24T05:14:11.384Z,2.20
2023-04-24T05:16:39.223Z,2.10
2023-04-24T05:19:07.081Z,1.83
2023-04-24T05:21:34.886Z,2.00
2023-04-24T05:24:04.229Z,2.17
2023-04-24T05:26:31.976Z,2.28
2023-04-24T05:28:59.794Z,2.38
2023-04-24T05:31:27.604Z,2.50
2023-04-24T05:33:55.395Z,2.45
2023-04-24T05:36:23.187Z,2.45
2023-04-24T05:38:50.946Z,2.25
2023-04-24T05:41:20.062Z,2.72
2023-04-24T05:43:47.935Z,2.53
2023-04-24T05:46:15.780Z,3.10
2023-04-24T05:48:43.586Z,2.97
2023-04-24T05:51:12.085Z,4.25
2023-04-24T05:53:40.250Z,3.53
2023-04-24T05:56:08.168Z,5.60
2023-04-24T05:58:38.359Z,2.63
2023-04-24T06:01:06.216Z,2.35
2023-04-24T06:03:34.371Z,3.28
2023-04-24T06:06:02.421Z,3.08
2023-04-24T06:08:30.197Z,3.05
2023-04-24T06:10:58.897Z,2.95
2023-04-24T06:13:26.706Z,2.72
2023-04-24T06:15:55.934Z,3.05
2023-04-24T06:18:23.647Z,2.78
2023-04-24T06:20:51.566Z,2.75
2023-04-24T06:23:19.368Z,2.90
2023-04-24T06:25:47.089Z,2.65
2023-04-24T06:28:14.939Z,2.65
2023-04-24T06:30:42.722Z,2.40
2023-04-24T06:33:20.285Z,2.38
2023-04-24T06:35:49.554Z,2.60
2023-04-24T06:38:17.863Z,2.75
2023-04-24T06:40:45.842Z,2.10
2023-04-24T06:43:13.600Z,2.88
2023-04-24T06:45:41.471Z,2.40
2023-04-24T06:48:10.786Z,5.38
2023-04-24T06:50:38.559Z,2.80
2023-04-24T06:53:06.289Z,2.00
2023-04-24T06:55:34.218Z,2.17
2023-04-24T06:58:02.175Z,2.10
2023-04-24T07:00:30.952Z,1.67
2023-04-24T07:02:59.039Z,1.48
2023-04-24T07:05:29.098Z,1.60
2023-04-24T07:07:59.148Z,1.10
2023-04-24T07:10:29.539Z,1.30
2023-04-24T07:12:57.734Z,1.23
2023-04-24T07:15:25.438Z,1.08
2023-04-24T07:17:53.212Z,0.85
2023-04-24T07:20:20.994Z,0.80
2023-04-24T07:22:50.404Z,0.80
2023-04-24T07:25:18.286Z,1.17
2023-04-24T07:27:46.062Z,0.80
2023-04-24T07:30:14.319Z,0.80
2023-04-24T07:32:42.043Z,0.90
2023-04-24T07:35:10.961Z,0.60
2023-04-24T07:37:38.798Z,1.08
2023-04-24T07:40:09.310Z,0.77
2023-04-24T07:42:37.313Z,1.20
2023-04-24T07:45:05.856Z,0.98
2023-04-24T07:47:34.588Z,0.90
2023-04-24T07:50:02.702Z,0.90
2023-04-24T07:52:30.408Z,1.90
2023-04-24T07:55:01.340Z,1.30
2023-04-24T07:57:30.639Z,0.95
2023-04-24T07:59:58.579Z,1.00
2023-04-24T08:02:28.782Z,1.15
2023-04-24T08:05:00.246Z,1.10
2023-04-24T08:07:30.441Z,0.90
2023-04-24T08:10:00.895Z,1.00
2023-04-24T08:12:32.505Z,1.35
2023-04-24T08:15:02.232Z,1.10
2023-04-24T08:17:35.164Z,1.10
2023-04-24T08:20:06.393Z,1.50
2023-04-24T08:22:36.435Z,1.08
2023-04-24T08:25:06.464Z,1.10
2023-04-24T08:27:38.640Z,1.35
2023-04-24T08:30:10.849Z,1.92
2023-04-24T08:32:40.939Z,1.88
2023-04-24T08:35:11.812Z,0.93
2023-04-24T08:37:41.895Z,1.38
2023-04-24T08:40:17.063Z,1.17
2023-04-24T08:42:50.640Z,1.77
2023-04-24T08:45:20.515Z,1.38
2023-04-24T08:47:50.936Z,1.45
2023-04-24T08:50:19.617Z,1.10
2023-04-24T08:52:50.250Z,1.23
2023-04-24T08:55:21.792Z,1.40
2023-04-24T08:57:54.602Z,1.50
2023-04-24T09:00:23.307Z,1.40
2023-04-24T09:02:52.539Z,1.30
2023-04-24T09:05:22.697Z,1.35
2023-04-24T09:07:55.889Z,1.08
2023-04-24T09:10:25.147Z,0.90
2023-04-24T09:12:54.864Z,1.17
2023-04-24T09:15:22.746Z,1.15
2023-04-24T09:17:50.494Z,1.50
2023-04-24T09:20:18.483Z,1.55
2023-04-24T09:22:47.408Z,2.00
2023-04-24T09:25:15.135Z,1.20
2023-04-24T09:27:47.207Z,1.20
2023-04-24T09:30:23.574Z,2.30
2023-04-24T09:32:51.331Z,1.48
2023-04-24T09:35:19.125Z,1.90
2023-04-24T09:37:49.740Z,1.30
2023-04-24T09:40:19.006Z,1.38
2023-04-24T09:42:47.892Z,1.52
2023-04-24T09:45:18.809Z,1.73
2023-04-24T09:47:46.650Z,1.60
2023-04-24T09:50:16.242Z,1.60
2023-04-24T09:52:46.432Z,1.40
2023-04-24T09:55:22.485Z,1.40
2023-04-24T10:00:24.279Z,3.63
2023-04-24T10:02:53.983Z,1.80
2023-04-24T10:05:25.771Z,1.48
2023-04-24T10:07:53.842Z,2.10
2023-04-24T10:10:21.882Z,1.65
2023-04-24T10:12:49.962Z,1.38
2023-04-24T10:15:21.543Z,1.90
2023-04-24T10:17:53.326Z,1.58
2023-04-24T10:20:22.959Z,1.75
2023-04-24T10:22:52.576Z,1.70
2023-04-24T10:25:22.417Z,2.00
2023-04-24T10:27:52.215Z,1.65
2023-04-24T10:30:22.107Z,1.00
2023-04-24T10:32:51.366Z,1.15
2023-04-24T10:35:23.062Z,1.13
2023-04-24T10:37:54.048Z,1.00
2023-04-24T10:40:28.374Z,1.30
2023-04-24T10:42:58.623Z,2.10
2023-04-24T10:45:27.173Z,1.58
2023-04-24T10:48:00.054Z,1.23
2023-04-24T10:50:29.317Z,1.40
2023-04-24T10:53:08.308Z,1.15
2023-04-24T10:55:44.664Z,1.73
2023-04-24T10:58:13.011Z,1.10
2023-04-24T11:00:42.262Z,1.25
2023-04-24T11:03:26.463Z,1.60
2023-04-24T11:05:58.157Z,1.08
2023-04-24T11:08:31.512Z,1.60
2023-04-24T11:11:04.484Z,1.35
2023-04-24T11:14:03.477Z,1.77
2023-04-24T11:16:34.151Z,1.23
2023-04-24T11:19:08.159Z,1.30
2023-04-24T11:21:43.764Z,1.40
2023-04-24T11:24:32.642Z,1.40
2023-04-24T11:27:07.610Z,1.67
2023-04-24T11:29:49.209Z,1.52
2023-04-24T11:32:19.709Z,2.08
2023-04-24T11:34:53.177Z,1.40
2023-04-24T11:37:20.952Z,1.73
2023-04-24T11:39:48.795Z,1.90
2023-04-24T11:42:17.353Z,2.08
2023-04-24T11:44:45.989Z,2.25
2023-04-24T11:47:13.739Z,2.05
2023-04-24T11:49:41.657Z,1.70
2023-04-24T11:52:11.540Z,1.75
2023-04-24T11:54:39.291Z,2.05
2023-04-24T11:57:08.170Z,1.95
2023-04-24T11:59:39.621Z,2.17
2023-04-24T12:02:07.594Z,2.65
2023-04-24T12:04:43.014Z,2.83
2023-04-24T12:07:12.706Z,2.90
2023-04-24T12:09:44.271Z,2.60
2023-04-24T12:12:13.466Z,2.00
2023-04-24T12:14:55.493Z,3.15
2023-04-24T12:17:29.192Z,2.58
2023-04-24T12:20:01.249Z,2.55
2023-04-24T12:22:30.406Z,2.40
2023-04-24T12:24:59.325Z,2.40
2023-04-24T12:27:27.534Z,2.28
2023-04-24T12:29:58.602Z,2.33
2023-04-24T12:32:28.221Z,2.35
2023-04-24T12:34:57.143Z,2.25
2023-04-24T12:37:26.110Z,2.25
2023-04-24T12:40:07.871Z,2.30
2023-04-24T12:42:37.140Z,2.22
2023-04-24T12:45:06.845Z,2.20
2023-04-24T12:47:35.466Z,2.50
2023-04-24T12:50:03.982Z,2.33
2023-04-24T12:52:32.472Z,2.80
2023-04-24T12:55:01.642Z,2.42
2023-04-24T12:57:32.339Z,2.38
2023-04-24T13:00:00.870Z,2.30
2023-04-24T13:02:31.386Z,2.05
2023-04-24T13:05:00.090Z,2.50
2023-04-24T13:07:28.387Z,1.98
2023-04-24T13:09:57.340Z,2.08
2023-04-24T13:12:26.318Z,2.10
2023-04-24T13:14:55.561Z,2.30
2023-04-24T13:17:23.953Z,1.95
2023-04-24T13:19:53.169Z,2.28
2023-04-24T13:22:20.857Z,2.05
2023-04-24T13:24:49.483Z,1.90
2023-04-24T13:27:17.567Z,2.65
2023-04-24T13:29:45.590Z,2.20
2023-04-24T13:32:14.787Z,2.63
2023-04-24T13:34:42.626Z,3.38
2023-04-24T13:37:10.366Z,2.42
2023-04-24T13:39:38.146Z,2.35
2023-04-24T13:42:05.924Z,2.72
2023-04-24T13:44:33.677Z,2.58
2023-04-24T13:47:01.496Z,2.83
2023-04-24T13:49:30.577Z,2.70
2023-04-24T13:51:58.847Z,2.85
2023-04-24T13:54:27.127Z,2.40
2023-04-24T13:56:55.140Z,2.17
2023-04-24T13:59:23.129Z,2.88
2023-04-24T14:01:50.993Z,2.22
2023-04-24T14:04:19.002Z,2.95
2023-04-24T14:06:48.341Z,2.08
2023-04-24T14:09:16.282Z,1.95
2023-04-24T14:11:44.152Z,2.78
2023-04-24T14:14:12.433Z,2.05
2023-04-24T14:16:40.553Z,2.15
2023-04-24T14:19:08.522Z,2.17
2023-04-24T14:21:36.262Z,2.05
2023-04-24T14:24:05.689Z,1.90
2023-04-24T14:26:33.661Z,2.22
2023-04-24T14:29:11.638Z,2.22
2023-04-24T14:31:42.464Z,2.38
2023-04-24T14:34:10.562Z,2.50
2023-04-24T14:36:38.596Z,2.35
2023-04-24T14:39:08.617Z,2.88
2023-04-24T14:41:38.056Z,3.30
2023-04-24T14:44:06.182Z,2.88
2023-04-24T14:46:34.200Z,3.28
2023-04-24T14:49:02.117Z,2.95
2023-04-24T14:51:29.997Z,2.75
2023-04-24T14:53:58.441Z,3.33
2023-04-24T14:56:27.527Z,3.88
2023-04-24T14:58:55.363Z,2.97
2023-04-24T15:01:23.355Z,3.47
2023-04-24T15:03:51.710Z,3.47
2023-04-24T15:06:21.067Z,3.97
2023-04-24T15:08:50.429Z,3.30
2023-04-24T15:11:18.535Z,3.70
2023-04-24T15:13:47.929Z,3.00
2023-04-24T15:16:16.418Z,2.70
2023-04-24T15:18:44.282Z,2.78
2023-04-24T15:21:13.859Z,2.45
2023-04-24T15:23:41.740Z,2.83
2023-04-24T15:26:09.521Z,2.28
2023-04-24T15:28:37.317Z,2.40
2023-04-24T15:31:06.519Z,2.88
2023-04-24T15:33:34.287Z,2.97
2023-04-24T15:36:02.066Z,3.20
2023-04-24T15:38:29.873Z,2.42
2023-04-24T15:40:57.604Z,3.15
2023-04-24T15:43:25.609Z,2.83
2023-04-24T15:45:53.416Z,2.83
2023-04-24T15:48:22.585Z,3.05
2023-04-24T15:50:50.584Z,3.08
2023-04-24T15:53:21.990Z,3.20
2023-04-24T15:55:50.050Z,3.17
2023-04-24T15:58:18.103Z,3.33
2023-04-24T16:00:45.991Z,4.20
2023-04-24T16:03:13.819Z,3.60
2023-04-24T16:05:42.962Z,2.88
2023-04-24T16:08:11.146Z,3.70
2023-04-24T16:10:38.890Z,2.78
2023-04-24T16:13:06.662Z,2.70
2023-04-24T16:15:35.981Z,2.45
2023-04-24T16:18:03.826Z,3.25
2023-04-24T16:20:31.596Z,6.22
2023-04-24T16:23:00.653Z,2.47
2023-04-24T16:25:28.533Z,3.22
2023-04-24T16:27:57.210Z,3.90
2023-04-24T16:30:25.195Z,2.50
2023-04-24T16:32:53.567Z,2.33
2023-04-24T16:35:21.469Z,2.53
2023-04-24T16:37:49.216Z,2.35
2023-04-24T16:40:18.399Z,1.98
2023-04-24T16:42:46.179Z,2.22
2023-04-24T16:45:13.877Z,1.80
2023-04-24T16:47:41.685Z,1.98
2023-04-24T16:50:10.172Z,2.45
2023-04-24T16:52:37.914Z,1.80
2023-04-24T16:55:06.448Z,2.42
2023-04-24T16:57:35.544Z,2.47
2023-04-24T17:00:03.936Z,2.10
2023-04-24T17:02:32.091Z,2.05
2023-04-24T17:05:00.006Z,1.77
2023-04-24T17:07:27.902Z,1.88
2023-04-24T17:09:55.777Z,1.80
2023-04-24T17:12:23.504Z,2.20
2023-04-24T17:14:52.576Z,1.80
2023-04-24T17:17:23.045Z,1.40
2023-04-24T17:19:51.210Z,1.98
2023-04-24T17:22:19.153Z,1.85
2023-04-24T17:24:46.866Z,1.80
2023-04-24T17:27:15.637Z,1.88
2023-04-24T17:29:44.453Z,2.33
2023-04-24T17:32:13.605Z,2.47
2023-04-24T17:34:41.392Z,2.80
2023-04-24T17:37:09.372Z,2.10
2023-04-24T17:39:37.196Z,1.83
2023-04-24T17:42:05.235Z,1.90
2023-04-24T17:44:32.964Z,2.15
2023-04-24T17:47:00.868Z,1.95
2023-04-24T17:49:29.999Z,2.20
2023-04-24T17:51:57.832Z,2.50
2023-04-24T17:54:25.612Z,2.53
2023-04-24T17:56:53.710Z,2.08
2023-04-24T17:59:22.157Z,1.98
2023-04-24T18:01:50.336Z,2.30
2023-04-24T18:04:18.412Z,2.40
2023-04-24T18:06:47.713Z,2.10
2023-04-24T18:09:18.755Z,2.28
2023-04-24T18:11:46.565Z,2.33
2023-04-24T18:14:14.705Z,2.80
2023-04-24T18:16:42.563Z,3.05
2023-04-24T18:19:10.329Z,2.17
2023-04-24T18:21:39.111Z,2.15
2023-04-24T18:24:08.341Z,2.70
2023-04-24T18:26:36.045Z,2.20
2023-04-24T18:29:03.800Z,1.98
2023-04-24T18:31:32.439Z,2.08
2023-04-24T18:34:00.421Z,3.67
2023-04-24T18:36:28.213Z,8.23
2023-04-24T18:38:55.955Z,6.60
2023-04-24T18:41:25.029Z,1.98
2023-04-24T18:43:52.817Z,1.40
2023-04-24T18:46:20.666Z,1.67
2023-04-24T18:48:48.644Z,1.40
2023-04-24T18:51:16.543Z,1.83
2023-04-24T18:53:44.265Z,1.45
2023-04-24T18:56:12.982Z,1.60
2023-04-24T18:58:46.105Z,1.70
2023-04-24T19:01:14.066Z,1.70
2023-04-24T19:03:41.861Z,1.58
2023-04-24T19:06:09.682Z,1.60
2023-04-24T19:08:38.442Z,1.70
2023-04-24T19:11:06.589Z,1.67
2023-04-24T19:13:34.685Z,1.65
2023-04-24T19:16:03.880Z,1.83
2023-04-24T19:18:31.756Z,2.83
2023-04-24T19:20:59.889Z,2.28
2023-04-24T19:23:28.548Z,3.17
2023-04-24T19:25:56.294Z,2.30
2023-04-24T19:28:24.085Z,1.73
2023-04-24T19:30:51.790Z,1.77
2023-04-24T19:33:20.940Z,1.80
2023-04-24T19:35:49.106Z,1.55
2023-04-24T19:38:16.954Z,1.88
2023-04-24T19:40:44.711Z,1.67
2023-04-24T19:43:12.521Z,2.28
2023-04-24T19:45:40.359Z,1.83
2023-04-24T19:48:08.434Z,1.88
2023-04-24T19:50:38.104Z,1.85
2023-04-24T19:53:06.399Z,1.88
2023-04-24T19:55:34.092Z,1.95
2023-04-24T19:58:01.889Z,2.00
2023-04-24T20:00:29.661Z,2.13
2023-04-24T20:02:58.364Z,2.20
2023-04-24T20:05:26.429Z,2.47
2023-04-24T20:07:55.645Z,1.90
2023-04-24T20:10:23.373Z,1.85
2023-04-24T20:12:51.255Z,2.40
2023-04-24T20:15:19.165Z,2.40
2023-04-24T20:17:46.941Z,2.30
2023-04-24T20:20:14.954Z,2.45
2023-04-24T20:22:42.750Z,2.42
2023-04-24T20:25:13.743Z,2.10
2023-04-24T20:27:42.763Z,2.40
2023-04-24T20:30:13.056Z,2.65
2023-04-24T20:32:41.314Z,2.50
2023-04-24T20:35:10.322Z,2.70
2023-04-24T20:37:38.273Z,2.45
2023-04-24T20:40:07.214Z,2.50
2023-04-24T20:42:36.764Z,2.60
2023-04-24T20:45:04.978Z,2.45
2023-04-24T20:47:32.858Z,3.13
2023-04-24T20:50:02.189Z,2.42
2023-04-24T20:52:29.958Z,3.20
2023-04-24T20:54:57.725Z,2.97
2023-04-24T20:57:25.532Z,3.10
2023-04-24T20:59:55.569Z,3.10
2023-04-24T21:02:23.538Z,3.45
2023-04-24T21:04:51.312Z,3.47
2023-04-24T21:07:19.123Z,3.05
2023-04-24T21:09:46.854Z,3.03
2023-04-24T21:12:14.648Z,3.50
2023-04-24T21:14:42.425Z,3.70
2023-04-24T21:17:11.503Z,3.17
2023-04-24T21:19:39.514Z,3.50
2023-04-24T21:22:07.229Z,3.20
2023-04-24T21:24:35.162Z,3.33
2023-04-24T21:27:03.279Z,5.03
2023-04-24T21:29:31.042Z,4.15
2023-04-24T21:31:58.859Z,4.28
2023-04-24T21:34:27.990Z,5.90
2023-04-24T21:36:55.946Z,4.60
2023-04-24T21:39:23.694Z,4.03
2023-04-24T21:41:51.490Z,3.78
2023-04-24T21:44:19.264Z,2.67
2023-04-24T21:46:47.059Z,2.67
2023-04-24T21:49:14.788Z,2.90
2023-04-24T21:51:43.878Z,3.00
2023-04-24T21:54:11.656Z,2.80
2023-04-24T21:56:41.321Z,3.08
2023-04-24T21:59:09.538Z,3.15
2023-04-24T22:01:37.442Z,3.00
2023-04-24T22:04:06.536Z,3.05
2023-04-24T22:06:34.833Z,3.33
2023-04-24T22:09:04.686Z,2.67
2023-04-24T22:11:32.989Z,2.92
2023-04-24T22:14:00.778Z,3.05
2023-04-24T22:16:30.917Z,3.05
2023-04-24T22:18:59.200Z,3.13
2023-04-24T22:21:27.432Z,2.70
2023-04-24T22:23:55.347Z,2.15
2023-04-24T22:26:24.491Z,2.53
2023-04-24T22:28:52.243Z,2.67
2023-04-24T22:31:20.098Z,2.50
2023-04-24T22:33:48.060Z,2.55
2023-04-24T22:36:16.502Z,2.90
2023-04-24T22:38:44.216Z,3.05
2023-04-24T22:41:12.035Z,2.70
2023-04-24T22:43:41.180Z,3.13
2023-04-24T22:46:08.895Z,3.08
2023-04-24T22:48:36.784Z,2.85
2023-04-24T22:51:04.787Z,2.72
2023-04-24T22:53:32.529Z,2.85
2023-04-24T22:56:00.836Z,2.97
2023-04-24T22:58:29.196Z,2.67
2023-04-24T23:00:58.300Z,2.72
2023-04-24T23:03:26.317Z,2.80
2023-04-24T23:05:54.203Z,2.88
2023-04-24T23:08:22.081Z,2.28
2023-04-24T23:10:49.809Z,3.20
2023-04-24T23:13:17.560Z,2.88
2023-04-24T23:15:45.403Z,2.47
2023-04-24T23:18:14.494Z,2.75
2023-04-24T23:20:42.205Z,2.78
2023-04-24T23:23:10.060Z,3.03
2023-04-24T23:25:37.807Z,2.45
2023-04-24T23:28:05.943Z,2.20
2023-04-24T23:30:33.726Z,2.47
2023-04-24T23:33:02.248Z,2.58
2023-04-24T23:35:31.776Z,2.50
2023-04-24T23:37:59.529Z,2.50
2023-04-24T23:40:27.593Z,2.38
2023-04-24T23:43:06.081Z,2.65
2023-04-24T23:45:35.438Z,2.40
2023-04-24T23:48:03.971Z,2.72
2023-04-24T23:50:33.162Z,2.33
2023-04-24T23:53:00.902Z,2.30
2023-04-24T23:55:28.684Z,2.00
2023-04-24T23:57:56.414Z,2.10
